Time;durP1;ratioP1;P1;durP2;ratioP2;P2;SDS_P1;SDS_P2;PMS_P1;PMS_P2;Temp;Humidity;BMP_temperature;BMP_pressure;BME280_temperature;BME280_humidity;BME280_pressure;Samples;Min_cycle;Max_cycle;Signal;HPM_P1;HPM_P2
2022/10/24 00:00:31;;;;;;;7.53;5.13;;;;;;;14.18;92.03;95125.31;5071424;28;20259;-62
2022/10/24 00:02:58;;;;;;;9.25;5.00;;;;;;;14.09;93.14;95126.16;5071613;28;20269;-62
2022/10/24 00:05:24;;;;;;;8.18;4.57;;;;;;;14.03;93.16;95124.16;5053329;28;20224;-60
2022/10/24 00:07:50;;;;;;;6.63;4.63;;;;;;;14.14;92.18;95134.19;5071439;28;20268;-60
2022/10/24 00:10:17;;;;;;;8.38;4.60;;;;;;;14.05;93.24;95129.94;5071377;28;20217;-60
2022/10/24 00:12:43;;;;;;;7.78;5.22;;;;;;;14.04;93.11;95128.31;5071169;28;20617;-60
2022/10/24 00:15:08;;;;;;;6.78;5.15;;;;;;;13.98;93.24;95118.63;5071162;28;20315;-60
2022/10/24 00:17:34;;;;;;;6.88;4.82;;;;;;;14.12;92.21;95124.13;5053174;28;20221;-60
2022/10/24 00:19:59;;;;;;;9.25;5.05;;;;;;;14.08;92.69;95125.34;5069658;28;20248;-58
2022/10/24 00:22:26;;;;;;;6.65;5.22;;;;;;;14.01;93.34;95126.84;5071295;28;20209;-63
2022/10/24 00:24:51;;;;;;;7.43;4.85;;;;;;;13.96;93.59;95125.63;5070921;28;20738;-59
2022/10/24 00:27:18;;;;;;;6.15;4.60;;;;;;;14.01;93.54;95124.28;5071110;28;20215;-59
2022/10/24 00:29:43;;;;;;;7.23;5.07;;;;;;;14.03;93.22;95124.16;5071008;28;20204;-61
2022/10/24 00:32:09;;;;;;;5.60;4.60;;;;;;;14.10;92.95;95128.56;5071623;28;20185;-59
2022/10/24 00:34:34;;;;;;;8.65;5.95;;;;;;;14.11;92.13;95130.19;5061787;23;20236;-62
2022/10/24 00:37:00;;;;;;;7.85;5.25;;;;;;;14.06;92.43;95126.41;5031095;28;20274;-59
2022/10/24 00:39:26;;;;;;;8.38;4.65;;;;;;;14.02;92.88;95125.91;5031093;28;20803;-62
2022/10/24 00:41:53;;;;;;;8.60;5.00;;;;;;;14.05;92.36;95119.72;5031104;28;20261;-62
2022/10/24 00:44:24;;;;;;;7.70;4.88;;;;;;;14.03;92.99;95119.03;5030682;28;20271;-62
2022/10/24 00:47:04;;;;;;;6.03;5.22;;;;;;;13.93;93.88;95113.97;5032509;28;20568;-62
2022/10/24 00:49:59;;;;;;;7.97;5.10;;;;;;;13.92;93.81;95111.53;5035075;28;20241;-61
2022/10/24 00:52:27;;;;;;;7.30;4.82;;;;;;;14.06;92.48;95131.53;5029239;28;20680;-58
2022/10/24 00:54:55;;;;;;;8.73;5.32;;;;;;;13.86;94.23;95109.53;5016459;28;20221;-61
2022/10/24 00:57:20;;;;;;;8.65;5.28;;;;;;;13.79;95.08;95123.81;5016491;28;20189;-61
2022/10/24 00:59:50;;;;;;;7.50;5.07;;;;;;;13.98;92.82;95139.09;5034476;28;20703;-62
2022/10/24 01:02:16;;;;;;;7.07;4.80;;;;;;;13.60;95.07;95122.09;5034383;28;20636;-60
2022/10/24 01:04:41;;;;;;;8.30;5.60;;;;;;;13.56;95.59;95125.03;5034079;28;20730;-61
2022/10/24 01:07:33;;;;;;;5.68;4.40;;;;;;;13.69;94.49;95134.06;5034199;28;20182;-60
2022/10/24 01:10:19;;;;;;;5.40;3.30;;;;;;;13.75;93.86;95133.50;5005718;28;20299;-62
2022/10/24 01:13:05;;;;;;;5.72;3.38;;;;;;;13.72;93.95;95125.28;5033084;28;20202;-61
2022/10/24 01:15:41;;;;;;;8.80;4.33;;;;;;;13.79;94.15;95129.72;5034085;28;20225;-58
2022/10/24 01:18:35;;;;;;;7.65;4.63;;;;;;;13.79;95.06;95124.63;5034239;28;20663;-62
2022/10/24 01:21:23;;;;;;;5.90;4.05;;;;;;;13.78;94.01;95127.28;5012307;28;20206;-60
2022/10/24 01:24:09;;;;;;;4.75;3.53;;;;;;;13.78;94.35;95128.09;5034277;28;20210;-59
2022/10/24 01:26:40;;;;;;;9.27;3.92;;;;;;;13.68;94.45;95129.06;5034158;28;20197;-60
2022/10/24 01:29:21;;;;;;;7.35;4.47;;;;;;;13.55;94.93;95134.47;5033910;28;20218;-60
2022/10/24 01:31:54;;;;;;;5.78;4.13;;;;;;;13.56;95.01;95136.06;5034008;28;20614;-61
2022/10/24 01:34:31;;;;;;;7.65;4.65;;;;;;;13.43;96.10;95125.34;5033980;28;20218;-60
2022/10/24 01:37:11;;;;;;;5.90;3.60;;;;;;;13.60;93.96;95136.59;5033720;28;20273;-60
2022/10/24 01:39:45;;;;;;;4.60;3.60;;;;;;;13.34;95.69;95121.84;5015916;28;20642;-59
2022/10/24 01:42:15;;;;;;;6.43;3.93;;;;;;;13.32;94.55;95131.38;5033571;28;20182;-62
2022/10/24 01:44:46;;;;;;;4.70;3.50;;;;;;;13.23;95.50;95127.06;5033532;28;20206;-58
2022/10/24 01:47:16;;;;;;;3.22;2.67;;;;;;;13.20;95.50;95127.34;5033749;28;20228;-61
2022/10/24 01:49:48;;;;;;;4.88;3.53;;;;;;;13.12;95.61;95127.22;5033599;28;20213;-60
2022/10/24 01:52:16;;;;;;;4.87;3.53;;;;;;;13.08;95.99;95130.16;5033638;28;20312;-62
2022/10/24 01:54:43;;;;;;;3.50;3.20;;;;;;;13.02;96.80;95123.81;5033754;28;20229;-61
2022/10/24 01:57:09;;;;;;;4.13;3.30;;;;;;;13.02;96.36;95126.38;5034192;28;20265;-61
2022/10/24 01:59:39;;;;;;;8.02;3.35;;;;;;;13.00;96.26;95125.69;5015088;28;20356;-58
2022/10/24 02:02:13;;;;;;;4.53;3.47;;;;;;;12.93;97.54;95127.16;5033293;28;20186;-59
2022/10/24 02:05:02;;;;;;;8.90;3.50;;;;;;;12.92;97.47;95128.09;5033254;28;20216;-61
2022/10/24 02:07:30;;;;;;;5.63;3.95;;;;;;;13.11;96.31;95128.16;5032389;28;20206;-59
2022/10/24 02:10:01;;;;;;;4.90;3.60;;;;;;;12.85;97.70;95124.47;5032687;28;20364;-61
2022/10/24 02:12:28;;;;;;;4.80;3.23;;;;;;;12.93;98.38;95134.03;5033173;28;20277;-62
2022/10/24 02:15:00;;;;;;;6.27;3.40;;;;;;;12.90;97.65;95130.00;5032966;28;20599;-60
2022/10/24 02:17:27;;;;;;;5.60;3.60;;;;;;;12.88;98.82;95133.59;5033153;28;20192;-59
2022/10/24 02:19:53;;;;;;;6.20;3.97;;;;;;;12.92;98.58;95133.22;5031537;28;20668;-62
2022/10/24 02:22:35;;;;;;;5.53;3.70;;;;;;;12.87;99.36;95130.22;5032281;28;20190;-58
2022/10/24 02:25:11;;;;;;;8.40;3.15;;;;;;;13.00;98.07;95138.47;5032526;28;20300;-61
2022/10/24 02:27:54;;;;;;;5.38;3.55;;;;;;;13.14;96.65;95137.28;5014611;28;20182;-58
2022/10/24 02:30:22;;;;;;;6.13;3.10;;;;;;;13.14;96.54;95127.88;5032909;28;20361;-61
2022/10/24 02:32:52;;;;;;;3.97;2.83;;;;;;;13.12;96.72;95129.78;5032882;28;20561;-59
2022/10/24 02:35:25;;;;;;;4.47;3.35;;;;;;;12.99;98.23;95124.06;5032613;28;20234;-58
2022/10/24 02:37:54;;;;;;;4.75;3.35;;;;;;;13.06;98.10;95134.59;5032891;28;20258;-60
2022/10/24 02:40:21;;;;;;;6.90;3.43;;;;;;;13.03;98.58;95125.41;5014977;28;20241;-60
2022/10/24 02:42:50;;;;;;;4.03;3.47;;;;;;;13.10;97.63;95121.44;5032911;28;20183;-60
2022/10/24 02:45:18;;;;;;;7.75;3.03;;;;;;;13.28;97.41;95134.34;5032529;28;20292;-62
2022/10/24 02:47:44;;;;;;;5.63;3.15;;;;;;;13.10;98.43;95131.66;5033206;28;20186;-58
2022/10/24 02:50:11;;;;;;;5.63;3.27;;;;;;;13.00;99.26;95128.25;5032653;28;20696;-61
2022/10/24 02:52:38;;;;;;;6.80;3.77;;;;;;;13.00;99.11;95133.34;5032446;28;20640;-60
2022/10/24 02:55:05;;;;;;;4.13;3.40;;;;;;;13.05;99.02;95126.13;5032431;28;20309;-61
2022/10/24 02:57:30;;;;;;;5.10;3.20;;;;;;;13.10;98.68;95134.19;5032637;28;20208;-60
2022/10/24 02:59:56;;;;;;;6.40;3.90;;;;;;;13.16;97.96;95141.31;5032442;28;20213;-61
2022/10/24 03:02:22;;;;;;;9.07;5.18;;;;;;;13.12;97.75;95136.63;5032505;28;20205;-60
2022/10/24 03:04:48;;;;;;;7.63;5.70;;;;;;;12.88;98.79;95134.41;5032559;28;20672;-61
2022/10/24 03:07:13;;;;;;;12.50;6.17;;;;;;;12.84;99.33;95133.06;5032625;28;20608;-59
2022/10/24 03:09:38;;;;;;;9.90;5.80;;;;;;;12.86;99.76;95123.53;5031735;28;20722;-60
2022/10/24 03:12:04;;;;;;;9.27;5.80;;;;;;;12.91;100.00;95126.47;5032269;28;20182;-60
2022/10/24 03:14:30;;;;;;;10.97;5.90;;;;;;;12.84;99.84;95130.50;5032330;28;20221;-66
2022/10/24 03:16:55;;;;;;;11.77;6.30;;;;;;;12.78;99.98;95130.22;5032353;28;20186;-64
2022/10/24 03:19:20;;;;;;;11.73;6.65;;;;;;;12.86;100.00;95128.63;5032110;28;20388;-63
2022/10/24 03:21:46;;;;;;;12.30;7.83;;;;;;;12.54;100.00;95128.81;5032266;28;20561;-64
2022/10/24 03:24:11;;;;;;;13.73;7.83;;;;;;;12.31;100.00;95129.16;5032148;28;20217;-64
2022/10/24 03:26:37;;;;;;;12.70;8.07;;;;;;;12.36;100.00;95134.69;5032109;28;20542;-59
2022/10/24 03:29:03;;;;;;;12.93;8.40;;;;;;;12.47;100.00;95121.81;5032298;28;20220;-61
2022/10/24 03:31:30;;;;;;;11.73;7.93;;;;;;;12.52;100.00;95117.16;5032135;28;20277;-61
2022/10/24 03:33:56;;;;;;;10.83;7.73;;;;;;;12.61;100.00;95129.91;5014637;28;20232;-60
2022/10/24 03:36:21;;;;;;;11.67;8.00;;;;;;;12.66;100.00;95127.00;5031945;28;20263;-61
2022/10/24 03:38:47;;;;;;;9.23;5.68;;;;;;;13.60;100.00;95152.75;5031852;28;20218;-61
2022/10/24 03:41:12;;;;;;;11.57;7.45;;;;;;;13.63;100.00;95167.81;5031883;28;20238;-62
2022/10/24 03:43:38;;;;;;;11.73;7.57;;;;;;;13.46;100.00;95173.59;5031849;28;20297;-62
2022/10/24 03:46:03;;;;;;;12.65;7.82;;;;;;;13.29;100.00;95184.47;5031776;28;20188;-62
2022/10/24 03:48:29;;;;;;;14.33;7.53;;;;;;;13.15;100.00;95200.97;5031885;28;20269;-63
2022/10/24 03:50:54;;;;;;;10.77;7.63;;;;;;;13.08;100.00;95191.44;5032094;28;20190;-61
2022/10/24 03:53:19;;;;;;;9.80;6.88;;;;;;;13.14;100.00;95204.47;5031923;28;20202;-61
2022/10/24 03:55:45;;;;;;;15.05;6.53;;;;;;;13.02;100.00;95190.19;5031378;28;20284;-59
2022/10/24 03:58:11;;;;;;;7.72;5.60;;;;;;;12.95;100.00;95181.41;5031532;28;20201;-61
2022/10/24 04:00:39;;;;;;;10.07;5.13;;;;;;;13.03;100.00;95202.00;5031446;28;20205;-60
2022/10/24 04:03:06;;;;;;;7.15;4.70;;;;;;;12.98;100.00;95191.38;5031411;28;20252;-60
2022/10/24 04:05:33;;;;;;;12.00;6.00;;;;;;;12.86;100.00;95176.31;5031475;28;20586;-59
2022/10/24 04:07:58;;;;;;;9.43;4.75;;;;;;;12.86;100.00;95177.13;5031418;28;20238;-59
2022/10/24 04:10:24;;;;;;;8.27;5.27;;;;;;;12.85;100.00;95175.50;5031365;28;20279;-59
2022/10/24 04:12:50;;;;;;;10.13;4.87;;;;;;;12.79;100.00;95162.44;5031476;28;20182;-61
2022/10/24 04:15:15;;;;;;;7.10;4.70;;;;;;;12.71;100.00;95149.53;5013664;28;20225;-60
2022/10/24 04:17:41;;;;;;;10.00;5.85;;;;;;;12.70;100.00;95147.94;5031454;28;20186;-60
2022/10/24 04:20:07;;;;;;;8.03;4.67;;;;;;;12.75;100.00;95149.16;5031514;28;20214;-60
2022/10/24 04:22:33;;;;;;;6.07;5.03;;;;;;;12.76;100.00;95148.22;5030853;28;20183;-61
2022/10/24 04:24:58;;;;;;;11.18;4.82;;;;;;;12.63;100.00;95151.00;5013258;28;20309;-62
2022/10/24 04:27:24;;;;;;;8.48;5.13;;;;;;;12.55;100.00;95147.47;5031049;28;20182;-62
2022/10/24 04:29:49;;;;;;;8.80;4.47;;;;;;;12.55;100.00;95147.47;5030866;28;20268;-62
2022/10/24 04:32:15;;;;;;;8.73;4.27;;;;;;;12.48;100.00;95143.84;5013477;28;20668;-62
2022/10/24 04:34:40;;;;;;;6.30;4.60;;;;;;;12.34;100.00;95139.09;5031315;28;20228;-61
2022/10/24 04:37:06;;;;;;;7.00;4.17;;;;;;;12.40;100.00;95146.22;5030913;28;20194;-61
2022/10/24 04:39:31;;;;;;;9.77;4.30;;;;;;;12.46;100.00;95151.59;5030830;28;20711;-62
2022/10/24 04:41:56;;;;;;;6.57;5.40;;;;;;;12.47;100.00;95154.97;5030974;28;20189;-62
2022/10/24 04:44:22;;;;;;;8.47;4.60;;;;;;;12.46;100.00;95150.81;5013019;28;20540;-62
2022/10/24 04:46:49;;;;;;;5.73;4.00;;;;;;;12.44;100.00;95155.25;5031046;28;20194;-62
2022/10/24 04:49:14;;;;;;;14.27;4.43;;;;;;;12.47;100.00;95167.72;5029680;28;20316;-63
2022/10/24 04:51:40;;;;;;;11.43;4.70;;;;;;;12.60;100.00;95179.31;5013182;28;20621;-63
2022/10/24 04:54:06;;;;;;;6.07;4.07;;;;;;;12.47;100.00;95173.63;5031656;28;20264;-60
2022/10/24 04:56:32;;;;;;;6.93;5.40;;;;;;;12.47;100.00;95163.44;5029187;28;20202;-61
2022/10/24 04:58:57;;;;;;;8.87;4.50;;;;;;;12.58;100.00;95183.72;5031190;28;20422;-60
2022/10/24 05:01:23;;;;;;;7.60;5.10;;;;;;;12.53;100.00;95168.00;5030913;28;20193;-59
2022/10/24 05:03:48;;;;;;;11.73;5.83;;;;;;;12.58;100.00;95178.63;5013021;28;20648;-60
2022/10/24 05:06:14;;;;;;;17.50;7.90;;;;;;;12.41;100.00;95174.16;5030561;28;20190;-59
2022/10/24 05:08:39;;;;;;;11.97;7.07;;;;;;;12.50;100.00;95180.22;5030780;28;20194;-63
2022/10/24 05:11:05;;;;;;;18.50;8.20;;;;;;;12.65;100.00;95192.50;5030650;28;20252;-63
2022/10/24 05:13:30;;;;;;;12.47;7.03;;;;;;;12.54;100.00;95174.72;5030507;28;20240;-62
2022/10/24 05:15:56;;;;;;;9.87;6.63;;;;;;;13.22;100.00;95191.84;5030469;28;20213;-60
2022/10/24 05:18:21;;;;;;;13.40;8.07;;;;;;;13.24;100.00;95179.75;5030353;28;20633;-62
2022/10/24 05:20:47;;;;;;;17.10;7.43;;;;;;;13.01;100.00;95190.31;5030259;28;20597;-59
2022/10/24 05:23:12;;;;;;;14.55;7.78;;;;;;;12.98;100.00;95193.94;5030551;28;20660;-63
2022/10/24 05:25:38;;;;;;;15.27;7.93;;;;;;;13.02;100.00;95205.50;5030270;28;20300;-60
2022/10/24 05:28:03;;;;;;;16.37;7.17;;;;;;;13.06;100.00;95206.88;5030256;28;20186;-62
2022/10/24 05:30:29;;;;;;;15.35;7.70;;;;;;;13.13;100.00;95207.16;5028974;28;20210;-61
2022/10/24 05:32:54;;;;;;;12.70;7.35;;;;;;;13.16;100.00;95220.47;5030437;28;20785;-60
2022/10/24 05:35:20;;;;;;;14.77;7.83;;;;;;;13.17;100.00;95222.06;5032179;28;20218;-62
2022/10/24 05:37:45;;;;;;;12.25;7.57;;;;;;;13.24;100.00;95220.63;5030956;28;20193;-62
2022/10/24 05:40:11;;;;;;;15.07;7.88;;;;;;;13.16;100.00;95201.78;5033812;28;20209;-62
2022/10/24 05:42:37;;;;;;;16.73;7.35;;;;;;;13.19;100.00;95202.31;5032859;28;20240;-59
2022/10/24 05:45:08;;;;;;;13.90;8.20;;;;;;;13.16;100.00;95202.59;5033213;28;20289;-63
2022/10/24 05:47:34;;;;;;;19.92;7.53;;;;;;;12.95;100.00;95196.72;5033622;28;20269;-62
2022/10/24 05:49:59;;;;;;;20.63;8.83;;;;;;;12.89;100.00;95178.59;5015819;28;20210;-59
2022/10/24 05:52:25;;;;;;;16.33;8.17;;;;;;;13.04;100.00;95198.53;5033448;28;20194;-59
2022/10/24 05:54:50;;;;;;;13.83;7.17;;;;;;;13.06;100.00;95194.13;5033160;28;20597;-62
2022/10/24 05:57:16;;;;;;;12.27;6.07;;;;;;;13.07;100.00;95218.69;5033326;28;20190;-62
2022/10/24 05:59:41;;;;;;;9.30;5.68;;;;;;;13.05;100.00;95214.69;5033170;28;20243;-59
2022/10/24 06:02:16;;;;;;;13.27;5.93;;;;;;;13.09;100.00;95232.13;5033370;28;20190;-58
2022/10/24 06:04:41;;;;;;;12.60;6.47;;;;;;;13.07;100.00;95218.69;5033660;28;20209;-58
2022/10/24 06:07:06;;;;;;;15.70;8.83;;;;;;;12.99;100.00;95246.56;5033084;28;20577;-58
2022/10/24 06:09:32;;;;;;;23.73;11.82;;;;;;;12.95;100.00;95240.13;5033029;28;20206;-63
2022/10/24 06:11:57;;;;;;;34.67;13.77;;;;;;;13.01;100.00;95270.22;5033139;28;20190;-59
2022/10/24 06:14:23;;;;;;;24.40;13.17;;;;;;;13.04;100.00;95285.31;5015424;28;20754;-62
2022/10/24 06:16:48;;;;;;;26.33;13.57;;;;;;;12.88;100.00;95276.50;5033373;28;20198;-63
2022/10/24 06:19:14;;;;;;;33.77;14.87;;;;;;;12.95;100.00;95280.16;5111522;22;20599;-61
2022/10/24 06:21:39;;;;;;;27.58;14.95;;;;;;;12.95;100.00;95278.41;5093259;28;20184;-63
2022/10/24 06:24:05;;;;;;;30.23;14.43;;;;;;;13.04;100.00;95285.31;5093539;28;20216;-60
2022/10/24 06:26:30;;;;;;;26.23;15.00;;;;;;;13.05;100.00;95265.72;5093300;28;20180;-61
2022/10/24 06:28:55;;;;;;;23.85;13.60;;;;;;;12.96;100.00;95258.78;5093200;28;20212;-59
2022/10/24 06:31:21;;;;;;;34.37;17.77;;;;;;;12.93;100.00;95267.50;5091604;28;20188;-62
2022/10/24 06:33:47;;;;;;;35.87;16.87;;;;;;;12.80;100.00;95241.44;5092704;28;20306;-61
2022/10/24 06:36:13;;;;;;;26.30;15.73;;;;;;;12.81;100.00;95242.22;5092946;28;20215;-62
2022/10/24 06:38:39;;;;;;;26.83;15.57;;;;;;;12.78;100.00;95224.63;5092984;28;20180;-62
2022/10/24 06:41:10;;;;;;;30.63;14.50;;;;;;;12.80;100.00;95222.75;5092729;28;20176;-58
2022/10/24 06:43:37;;;;;;;24.33;13.02;;;;;;;12.98;100.00;95236.50;5092969;28;20681;-59
2022/10/24 06:46:07;;;;;;;30.75;12.65;;;;;;;13.09;100.00;95251.75;5092743;28;20667;-63
2022/10/24 06:48:34;;;;;;;22.03;12.90;;;;;;;13.14;100.00;95250.44;5091469;28;20200;-61
2022/10/24 06:50:59;;;;;;;24.77;12.20;;;;;;;13.22;100.00;95259.97;5092952;28;20180;-61
2022/10/24 06:53:25;;;;;;;22.87;13.47;;;;;;;13.29;100.00;95261.88;5093045;28;20199;-61
2022/10/24 06:55:50;;;;;;;33.03;13.17;;;;;;;13.30;100.00;95263.50;5092501;28;20243;-60
2022/10/24 06:58:15;;;;;;;32.07;14.50;;;;;;;13.47;100.00;95269.72;5092805;28;20195;-64
2022/10/24 07:00:41;;;;;;;28.17;15.63;;;;;;;13.56;100.00;95273.22;5092664;28;20212;-63
2022/10/24 07:03:06;;;;;;;21.40;13.80;;;;;;;13.56;100.00;95275.75;5092405;28;20642;-64
2022/10/24 07:05:31;;;;;;;20.03;11.83;;;;;;;13.68;100.00;95272.13;5092342;28;20286;-63
2022/10/24 07:07:57;;;;;;;22.08;11.80;;;;;;;13.71;100.00;95275.25;5092699;28;20580;-64
2022/10/24 07:10:22;;;;;;;16.33;9.43;;;;;;;13.65;100.00;95292.88;5092382;28;20584;-64
2022/10/24 07:12:48;;;;;;;16.10;10.07;;;;;;;13.61;100.00;95289.78;5092496;28;20673;-63
2022/10/24 07:15:13;;;;;;;14.82;9.15;;;;;;;13.82;100.00;95303.22;5092128;28;20621;-62
2022/10/24 07:17:41;;;;;;;13.77;9.05;;;;;;;13.88;100.00;95301.88;5092340;28;20192;-64
2022/10/24 07:20:07;;;;;;;12.90;9.10;;;;;;;13.85;100.00;95297.06;5092166;28;20689;-63
2022/10/24 07:22:33;;;;;;;14.00;9.27;;;;;;;14.13;100.00;95317.53;5107870;28;20278;-63
2022/10/24 07:24:59;;;;;;;13.75;9.23;;;;;;;14.32;100.00;95310.81;5091861;28;20204;-62
2022/10/24 07:27:24;;;;;;;17.33;9.45;;;;;;;14.50;100.00;95350.09;5092008;28;20188;-62
2022/10/24 07:29:50;;;;;;;17.83;11.63;;;;;;;14.30;100.00;95318.63;5092084;28;20747;-62
2022/10/24 07:32:16;;;;;;;14.32;10.05;;;;;;;14.45;100.00;95324.91;5091897;28;20214;-61
2022/10/24 07:34:42;;;;;;;13.80;10.07;;;;;;;14.41;100.00;95333.81;5091916;28;20220;-61
2022/10/24 07:37:14;;;;;;;18.75;11.02;;;;;;;14.59;100.00;95321.94;5091810;28;20183;-60
2022/10/24 07:39:39;;;;;;;14.18;10.55;;;;;;;14.64;100.00;95317.22;5091873;28;20761;-61
2022/10/24 07:42:05;;;;;;;19.38;11.45;;;;;;;14.70;100.00;95320.97;5091752;28;20642;-63
2022/10/24 07:44:30;;;;;;;15.18;10.80;;;;;;;15.00;100.00;95336.13;5091920;28;20204;-59
2022/10/24 07:46:56;;;;;;;16.73;11.88;;;;;;;15.25;100.00;95344.94;5091695;28;20176;-59
2022/10/24 07:49:21;;;;;;;28.67;13.80;;;;;;;15.35;100.00;95363.63;5090578;28;20294;-60
2022/10/24 07:51:47;;;;;;;21.73;12.88;;;;;;;15.47;100.00;95380.47;5091683;28;20600;-61
2022/10/24 07:54:12;;;;;;;20.02;14.07;;;;;;;15.77;100.00;95416.88;5091331;28;20282;-63
2022/10/24 07:56:37;;;;;;;16.08;12.52;;;;;;;15.76;100.00;95409.31;5090969;28;20208;-59
2022/10/24 07:59:03;;;;;;;23.88;13.93;;;;;;;15.85;100.00;95387.97;5091953;28;20219;-60
2022/10/24 08:01:28;;;;;;;25.08;13.27;;;;;;;16.11;100.00;95398.31;5091730;28;20587;-60
2022/10/24 08:03:55;;;;;;;22.13;12.90;;;;;;;16.32;100.00;95427.88;5091813;28;20633;-60
2022/10/24 08:06:23;;;;;;;23.38;12.63;;;;;;;16.48;100.00;95443.44;5091537;28;20216;-60
2022/10/24 08:08:49;;;;;;;22.05;13.40;;;;;;;16.67;100.00;95450.22;5091605;28;20222;-60
2022/10/24 08:11:20;;;;;;;22.17;13.10;;;;;;;16.87;100.00;95435.47;5091305;28;20621;-60
2022/10/24 08:13:46;;;;;;;20.92;12.38;;;;;;;17.02;100.00;95457.09;5091212;28;20191;-60
2022/10/24 08:16:15;;;;;;;26.00;13.50;;;;;;;17.19;100.00;95461.41;5091005;28;20337;-61
2022/10/24 08:18:40;;;;;;;19.95;13.88;;;;;;;17.41;99.59;95484.84;5091012;28;20204;-58
2022/10/24 08:21:10;;;;;;;20.40;13.95;;;;;;;17.73;97.95;95515.13;5091216;28;20226;-60
2022/10/24 08:23:39;;;;;;;22.98;12.18;;;;;;;17.94;93.47;95561.88;5091536;28;20208;-60
2022/10/24 08:26:07;;;;;;;18.00;12.55;;;;;;;18.05;92.65;95563.38;5089743;28;20291;-59
2022/10/24 08:28:34;;;;;;;27.35;13.80;;;;;;;18.07;94.77;95507.41;5091278;28;20211;-60
2022/10/24 08:31:05;;;;;;;19.25;12.68;;;;;;;18.27;94.23;95512.19;5091131;28;20187;-59
2022/10/24 08:33:31;;;;;;;20.60;13.30;;;;;;;18.50;94.01;95517.59;5091012;28;20207;-59
2022/10/24 08:36:03;;;;;;;20.27;12.52;;;;;;;18.75;91.59;95552.75;5090826;28;20303;-59
2022/10/24 08:38:29;;;;;;;24.05;12.45;;;;;;;19.00;90.31;95569.88;5091069;28;20260;-59
2022/10/24 08:40:56;;;;;;;18.88;12.30;;;;;;;19.29;88.46;95595.19;5090827;28;20247;-58
2022/10/24 08:43:22;;;;;;;25.58;11.05;;;;;;;19.48;88.19;95574.28;5091279;28;20726;-62
2022/10/24 08:46:12;;;;;;;16.02;9.85;;;;;;;19.69;80.48;95612.50;5090839;28;20208;-60
2022/10/24 08:48:48;;;;;;;18.23;9.70;;;;;;;19.83;77.52;95599.78;5091548;28;20245;-64
2022/10/24 08:51:37;;;;;;;15.85;9.80;;;;;;;20.18;70.71;95633.94;5085510;23;20240;-63
2022/10/24 08:54:05;;;;;;;18.58;10.40;;;;;;;20.36;68.42;95621.66;5030683;28;20288;-60
2022/10/24 08:56:32;;;;;;;18.88;10.48;;;;;;;20.56;66.78;95634.00;5030515;28;20683;-59
2022/10/24 08:59:02;;;;;;;18.17;11.30;;;;;;;20.58;64.92;95662.28;5030623;28;20252;-59
2022/10/24 09:01:50;;;;;;;25.17;11.70;;;;;;;20.73;66.08;95614.06;5030482;28;20193;-58
2022/10/24 09:04:20;;;;;;;23.23;11.57;;;;;;;21.12;64.14;95656.28;5030432;28;20282;-60
2022/10/24 09:06:47;;;;;;;30.42;12.45;;;;;;;21.29;62.69;95678.47;5030735;28;20603;-62
2022/10/24 09:09:25;;;;;;;19.20;10.80;;;;;;;21.23;62.98;95647.31;5014731;28;20260;-62
2022/10/24 09:12:13;;;;;;;18.98;10.27;;;;;;;21.42;62.50;95649.47;5034415;28;20194;-62
2022/10/24 09:14:42;;;;;;;21.85;9.65;;;;;;;21.50;63.55;95602.81;5033864;28;20263;-59
2022/10/24 09:17:22;;;;;;;20.38;9.43;;;;;;;21.82;61.64;95650.97;5034118;28;20221;-63
2022/10/24 09:19:59;;;;;;;21.98;10.40;;;;;;;22.20;59.50;95701.84;5034037;28;20260;-60
2022/10/24 09:22:29;;;;;;;14.82;8.57;;;;;;;22.45;58.41;95722.16;5033775;28;20699;-60
2022/10/24 09:25:13;;;;;;;26.52;9.32;;;;;;;22.63;57.55;95727.03;5033641;28;20206;-61
2022/10/24 09:27:40;;;;;;;19.02;8.48;;;;;;;22.78;56.58;95729.66;5033932;28;20182;-62
2022/10/24 09:30:14;;;;;;;21.05;10.10;;;;;;;22.93;56.83;95723.47;5033780;28;20253;-60
2022/10/24 09:32:41;;;;;;;17.38;8.35;;;;;;;23.10;56.80;95711.13;5033846;28;20188;-62
2022/10/24 09:35:11;;;;;;;16.90;7.93;;;;;;;23.29;55.84;95733.94;5015789;28;20640;-63
2022/10/24 09:37:41;;;;;;;12.30;6.50;;;;;;;23.45;53.62;95785.69;5033657;28;20201;-60
2022/10/24 09:40:45;;;;;;;17.75;7.30;;;;;;;23.55;53.35;95770.63;5015794;28;20206;-64
2022/10/24 09:43:17;;;;;;;12.32;7.50;;;;;;;23.59;53.18;95742.50;4979494;28;20259;-60
2022/10/24 09:46:06;;;;;;;16.25;7.25;;;;;;;23.74;52.99;95766.63;5033571;28;20757;-64
2022/10/24 09:48:52;;;;;;;19.00;6.90;;;;;;;23.78;53.37;95736.69;5033301;28;20197;-64
2022/10/24 09:51:23;;;;;;;14.20;6.93;;;;;;;23.30;52.78;95741.53;5033713;28;20225;-64
2022/10/24 09:54:18;;;;;;;11.02;6.28;;;;;;;23.54;52.03;95750.81;5033037;28;20207;-64
2022/10/24 09:57:16;;;;;;;11.07;6.10;;;;;;;23.93;52.60;95732.25;5033640;28;20194;-60
2022/10/24 09:59:43;;;;;;;13.38;5.90;;;;;;;23.88;51.52;95774.38;5033355;28;20637;-64
2022/10/24 10:02:38;;;;;;;11.32;6.28;;;;;;;23.81;51.86;95755.34;5033382;28;20194;-61
2022/10/24 10:05:04;;;;;;;12.13;6.05;;;;;;;24.14;51.04;95777.28;5031721;28;20217;-64
2022/10/24 10:07:30;;;;;;;17.05;5.80;;;;;;;24.39;51.40;95743.09;5033325;28;20205;-64
2022/10/24 10:09:58;;;;;;;15.65;5.93;;;;;;;24.49;49.45;95798.19;5033001;28;20206;-60
2022/10/24 10:12:25;;;;;;;13.30;6.47;;;;;;;24.08;50.98;95743.41;5033008;28;20194;-59
2022/10/24 10:14:51;;;;;;;13.00;5.07;;;;;;;24.17;51.25;95711.13;5033031;28;20214;-61
2022/10/24 10:17:24;;;;;;;8.55;5.75;;;;;;;24.45;49.74;95766.56;5032850;28;20240;-64
2022/10/24 10:19:50;;;;;;;20.67;5.53;;;;;;;24.43;49.94;95744.31;5032524;28;20205;-62
2022/10/24 10:22:30;;;;;;;12.98;5.70;;;;;;;24.78;50.52;95722.59;5033004;28;20201;-64
2022/10/24 10:24:57;;;;;;;12.95;5.20;;;;;;;24.65;49.45;95757.09;5033116;28;20206;-63
2022/10/24 10:27:29;;;;;;;14.82;5.45;;;;;;;24.60;49.48;95746.47;5032968;28;20584;-66
2022/10/24 10:30:07;;;;;;;10.52;5.30;;;;;;;24.48;50.44;95718.56;5032590;28;20259;-59
2022/10/24 10:33:07;;;;;;;11.57;5.30;;;;;;;24.57;48.30;95766.84;5032757;28;20196;-60
2022/10/24 10:35:51;;;;;;;15.50;4.95;;;;;;;24.97;49.27;95714.91;5014799;28;20222;-60
2022/10/24 10:38:46;;;;;;;14.85;5.13;;;;;;;25.23;49.32;95716.03;5032942;28;20653;-61
2022/10/24 10:41:30;;;;;;;12.88;5.05;;;;;;;25.48;48.97;95728.38;5008638;28;20218;-64
2022/10/24 10:44:18;;;;;;;15.15;5.05;;;;;;;25.34;47.85;95736.31;5032339;28;20205;-64
2022/10/24 10:46:58;;;;;;;12.70;5.05;;;;;;;25.45;48.09;95718.34;4986135;28;20237;-59
2022/10/24 10:49:30;;;;;;;13.10;4.90;;;;;;;25.37;47.36;95739.31;5032524;28;20225;-59
2022/10/24 10:51:57;;;;;;;8.82;4.30;;;;;;;25.39;47.35;95715.72;5032920;28;20246;-64
2022/10/24 10:54:43;;;;;;;13.93;4.95;;;;;;;25.16;47.98;95691.78;5014763;28;20221;-64
2022/10/24 10:57:13;;;;;;;9.23;4.95;;;;;;;25.26;47.93;95698.22;5032875;28;20225;-63
2022/10/24 10:59:38;;;;;;;7.70;4.63;;;;;;;25.45;47.03;95714.97;5014499;28;20283;-62
2022/10/24 11:02:23;;;;;;;12.35;5.45;;;;;;;25.18;46.95;95701.00;5032074;28;20194;-63
2022/10/24 11:05:27;;;;;;;15.25;5.20;;;;;;;24.88;47.09;95695.25;5030923;28;20237;-64
2022/10/24 11:08:12;;;;;;;13.38;4.85;;;;;;;25.13;47.42;95666.91;5032203;28;20291;-58
2022/10/24 11:10:48;;;;;;;10.18;5.03;;;;;;;25.17;48.78;95620.50;5032063;28;20210;-60
2022/10/24 11:13:25;;;;;;;15.20;4.93;;;;;;;25.02;48.65;95625.84;5032308;28;20242;-60
2022/10/24 11:15:57;;;;;;;9.32;4.60;;;;;;;25.34;47.42;95666.00;5032194;28;20255;-60
2022/10/24 11:18:29;;;;;;;15.32;5.28;;;;;;;25.52;47.88;95641.03;5032437;28;20277;-60
2022/10/24 11:21:13;;;;;;;13.75;5.28;;;;;;;25.69;46.99;95670.91;5032276;28;20194;-59
2022/10/24 11:24:12;;;;;;;10.15;5.07;;;;;;;25.78;46.77;95684.56;5032032;28;20186;-60
2022/10/24 11:27:15;;;;;;;9.02;4.75;;;;;;;25.55;45.80;95703.16;5032277;28;20194;-64
2022/10/24 11:29:46;;;;;;;9.32;4.75;;;;;;;25.62;47.34;95644.06;5000908;28;20271;-62
2022/10/24 11:32:39;;;;;;;10.30;5.20;;;;;;;25.66;48.34;95597.56;5031072;28;20199;-60
2022/10/24 11:35:22;;;;;;;15.00;5.90;;;;;;;25.84;47.62;95621.22;5031548;28;20589;-63